Terminal Aerodrome Forecast
Issued by NWS Shreveport, LA

Home | Current Version | Previous Version | Text Only | Print | Product List | Glossary On
Versions: 1 2 3 4 5 6 7 8 9 10 11 12 13 14 15 16 17 18 19
000
FTUS44 KSHV 290100 AAA
TAFSHV
TAF AMD
KSHV 290158Z 2902/2924 36005KT P6SM BKN010 OVC020
     FM290600 VRB03KT 3SM BR OVC004
     FM291600 08005KT P6SM OVC010=

USA.gov is the U.S. government's official web portal to all federal, state and local government web resources and services.